createdAt,value
2018-09-02T00:00:34.749Z,22.15
2018-09-02T00:03:03.819Z,22.14
2018-09-02T00:05:31.520Z,22.12
2018-09-02T00:07:59.777Z,22.12
2018-09-02T00:13:18.335Z,22.10
2018-09-02T00:15:45.997Z,22.09
2018-09-02T00:21:17.151Z,22.08
2018-09-02T00:26:35.101Z,22.06
2018-09-02T00:29:20.205Z,22.05
2018-09-02T00:31:47.965Z,22.03
2018-09-02T00:34:16.011Z,22.02
2018-09-02T00:39:34.377Z,22.00
2018-09-02T00:43:38.215Z,22.00
2018-09-02T00:46:06.025Z,21.99
2018-09-02T00:48:34.051Z,21.98
2018-09-02T00:51:02.105Z,21.96
2018-09-02T00:53:29.856Z,21.95
2018-09-02T00:55:57.514Z,21.94
2018-09-02T00:58:25.221Z,21.93
2018-09-02T01:00:52.893Z,21.93
2018-09-02T01:03:20.599Z,21.92
2018-09-02T01:05:49.511Z,21.92
2018-09-02T01:08:17.586Z,21.91
2018-09-02T01:10:45.558Z,21.92
2018-09-02T01:13:13.172Z,21.90
2018-09-02T01:15:41.307Z,21.88
2018-09-02T01:18:09.302Z,21.87
2018-09-02T01:20:37.001Z,21.88
2018-09-02T01:23:04.761Z,21.86
2018-09-02T01:25:32.712Z,21.86
2018-09-02T01:28:01.025Z,21.87
2018-09-02T01:30:28.748Z,21.86
2018-09-02T01:32:56.706Z,21.85
2018-09-02T01:35:29.977Z,21.84
2018-09-02T01:37:57.658Z,21.83
2018-09-02T01:40:25.601Z,21.83
2018-09-02T01:42:53.399Z,21.83
2018-09-02T01:45:21.098Z,21.80
2018-09-02T01:47:48.838Z,21.78
2018-09-02T01:50:16.538Z,21.79
2018-09-02T01:52:44.921Z,21.78
2018-09-02T01:55:12.570Z,21.77
2018-09-02T01:57:40.288Z,21.78
2018-09-02T02:00:08.266Z,21.76
2018-09-02T02:02:36.415Z,21.75
2018-09-02T02:05:04.167Z,21.76
2018-09-02T02:07:32.163Z,21.75
2018-09-02T02:09:59.932Z,21.74
2018-09-02T02:12:27.961Z,21.72
2018-09-02T02:14:55.990Z,21.73
2018-09-02T02:17:24.112Z,21.73
2018-09-02T02:19:52.409Z,21.71
2018-09-02T02:22:20.137Z,21.70
2018-09-02T02:24:48.397Z,21.70
2018-09-02T02:27:16.426Z,21.70
2018-09-02T02:29:44.538Z,21.68
2018-09-02T02:32:12.299Z,21.68
2018-09-02T02:34:40.020Z,21.66
2018-09-02T02:37:07.930Z,21.65
2018-09-02T02:39:35.679Z,21.63
2018-09-02T02:42:03.875Z,21.62
2018-09-02T02:44:31.942Z,21.61
2018-09-02T02:46:59.590Z,21.62
2018-09-02T02:49:27.815Z,21.62
2018-09-02T02:51:55.500Z,21.59
2018-09-02T02:54:23.462Z,21.59
2018-09-02T02:56:51.740Z,21.60
2018-09-02T02:59:19.424Z,21.58
2018-09-02T03:01:47.138Z,21.56
2018-09-02T03:04:14.841Z,21.56
2018-09-02T03:06:42.595Z,21.55
2018-09-02T03:09:11.785Z,21.55
2018-09-02T03:11:40.525Z,21.55
2018-09-02T03:14:09.025Z,21.52
2018-09-02T03:16:37.144Z,21.52
2018-09-02T03:19:04.798Z,21.51
2018-09-02T03:21:32.482Z,21.50
2018-09-02T03:24:00.459Z,21.48
2018-09-02T03:26:29.218Z,21.46
2018-09-02T03:28:57.626Z,21.46
2018-09-02T03:31:25.367Z,21.46
2018-09-02T03:33:53.005Z,21.46
2018-09-02T03:36:20.725Z,21.45
2018-09-02T03:38:48.757Z,21.45
2018-09-02T03:41:16.461Z,21.42
2018-09-02T03:43:44.899Z,21.43
2018-09-02T03:49:18.359Z,21.41
2018-09-02T03:51:46.102Z,21.40
2018-09-02T03:54:13.814Z,21.39
2018-09-02T03:56:42.052Z,21.38
2018-09-02T03:59:10.122Z,21.38
2018-09-02T04:01:37.795Z,21.36
2018-09-02T04:04:05.922Z,21.37
2018-09-02T04:06:33.617Z,21.34
2018-09-02T04:09:01.396Z,21.34
2018-09-02T04:11:29.788Z,21.34
2018-09-02T04:13:58.044Z,21.33
2018-09-02T04:16:25.836Z,21.33
2018-09-02T04:18:53.550Z,21.31
2018-09-02T04:21:41.651Z,21.32
2018-09-02T04:24:09.590Z,21.30
2018-09-02T04:26:37.459Z,21.29
2018-09-02T04:29:05.237Z,21.29
2018-09-02T04:31:32.963Z,21.30
2018-09-02T04:34:00.663Z,21.27
2018-09-02T04:36:28.924Z,21.28
2018-09-02T04:38:56.695Z,21.29
2018-09-02T04:41:24.428Z,21.28
2018-09-02T04:43:52.474Z,21.28
2018-09-02T04:46:20.206Z,21.28
2018-09-02T04:48:48.235Z,21.28
2018-09-02T04:51:16.319Z,21.28
2018-09-02T04:53:44.065Z,21.28
2018-09-02T04:56:11.775Z,21.29
2018-09-02T04:58:39.590Z,21.30
2018-09-02T05:01:07.356Z,21.30
2018-09-02T05:03:35.751Z,21.31
2018-09-02T05:06:03.503Z,21.32
2018-09-02T05:08:31.218Z,21.31
2018-09-02T05:10:59.275Z,21.30
2018-09-02T05:13:26.997Z,21.31
2018-09-02T05:15:54.755Z,21.32
2018-09-02T05:18:22.547Z,21.34
2018-09-02T05:20:50.222Z,21.35
2018-09-02T05:23:18.085Z,21.35
2018-09-02T05:25:46.152Z,21.35
2018-09-02T05:28:13.917Z,21.35
2018-09-02T05:30:42.078Z,21.37
2018-09-02T05:33:09.864Z,21.37
2018-09-02T05:35:37.608Z,21.39
2018-09-02T05:38:05.647Z,21.35
2018-09-02T05:40:33.446Z,21.37
2018-09-02T05:43:01.763Z,21.39
2018-09-02T05:45:29.472Z,21.39
2018-09-02T05:47:57.209Z,21.41
2018-09-02T05:50:24.928Z,21.42
2018-09-02T05:52:52.692Z,21.42
2018-09-02T05:55:20.448Z,21.39
2018-09-02T05:57:48.236Z,21.40
2018-09-02T06:00:16.371Z,21.42
2018-09-02T06:02:44.140Z,21.43
2018-09-02T06:05:11.893Z,21.44
2018-09-02T06:07:39.617Z,21.44
2018-09-02T06:10:07.439Z,21.45
2018-09-02T06:12:35.123Z,21.46
2018-09-02T06:15:02.872Z,21.48
2018-09-02T06:17:31.669Z,21.52
2018-09-02T06:20:00.267Z,21.51
2018-09-02T06:22:28.016Z,21.52
2018-09-02T06:24:55.712Z,21.52
2018-09-02T06:27:23.708Z,21.52
2018-09-02T06:29:51.468Z,21.52
2018-09-02T06:32:19.749Z,21.54
2018-09-02T06:34:47.717Z,21.53
2018-09-02T06:37:15.504Z,21.54
2018-09-02T06:39:43.227Z,21.55
2018-09-02T06:42:10.955Z,21.57
2018-09-02T06:44:39.059Z,21.59
2018-09-02T06:47:06.855Z,21.60
2018-09-02T06:49:34.619Z,21.61
2018-09-02T06:52:02.395Z,21.59
2018-09-02T06:54:30.613Z,21.60
2018-09-02T06:56:58.943Z,21.64
2018-09-02T06:59:26.668Z,21.66
2018-09-02T07:01:54.437Z,21.69
2018-09-02T07:04:22.116Z,21.71
2018-09-02T07:06:50.143Z,21.72
2018-09-02T07:09:17.874Z,21.72
2018-09-02T07:11:45.584Z,21.75
2018-09-02T07:14:13.326Z,21.77
2018-09-02T07:16:41.045Z,21.78
2018-09-02T07:19:09.070Z,21.77
2018-09-02T07:21:36.771Z,21.77
2018-09-02T07:24:04.476Z,21.77
2018-09-02T07:26:32.865Z,21.79
2018-09-02T07:29:00.615Z,21.85
2018-09-02T07:31:28.410Z,21.88
2018-09-02T07:33:56.072Z,21.92
2018-09-02T07:36:24.207Z,21.92
2018-09-02T07:38:52.048Z,21.94
2018-09-02T07:41:20.169Z,21.96
2018-09-02T07:43:48.184Z,22.00
2018-09-02T07:46:15.803Z,22.03
2018-09-02T07:48:43.757Z,22.06
2018-09-02T07:51:11.768Z,22.07
2018-09-02T07:53:39.918Z,22.08
2018-09-02T07:56:08.068Z,22.08
2018-09-02T07:58:36.004Z,22.10
2018-09-02T08:01:03.976Z,22.12
2018-09-02T08:03:32.039Z,22.19
2018-09-02T08:05:59.808Z,22.23
2018-09-02T08:08:27.492Z,22.25
2018-09-02T08:10:55.251Z,22.27
2018-09-02T08:13:22.922Z,22.27
2018-09-02T08:15:51.060Z,22.31
2018-09-02T08:18:18.833Z,22.33
2018-09-02T08:20:46.554Z,22.38
2018-09-02T08:23:14.359Z,22.36
2018-09-02T08:25:42.067Z,22.36
2018-09-02T08:28:09.858Z,22.38
2018-09-02T08:30:37.873Z,22.43
2018-09-02T08:33:05.839Z,22.41
2018-09-02T08:35:33.455Z,22.40
2018-09-02T08:38:01.148Z,22.39
2018-09-02T08:40:28.858Z,22.41
2018-09-02T08:42:56.577Z,22.43
2018-09-02T08:45:24.707Z,22.46
2018-09-02T08:47:52.427Z,22.48
2018-09-02T08:50:20.361Z,22.49
2018-09-02T08:52:48.104Z,22.49
2018-09-02T08:55:15.772Z,22.49
2018-09-02T08:57:43.435Z,22.48
2018-09-02T09:00:12.608Z,22.52
2018-09-02T09:02:40.455Z,22.59
2018-09-02T09:05:08.539Z,22.62
2018-09-02T09:07:36.399Z,22.59
2018-09-02T09:10:04.324Z,22.57
2018-09-02T09:12:32.302Z,22.59
2018-09-02T09:15:00.044Z,22.67
2018-09-02T09:17:27.781Z,22.70
2018-09-02T09:19:55.487Z,22.79
2018-09-02T09:22:23.495Z,22.81
2018-09-02T09:24:51.256Z,22.86
2018-09-02T09:27:18.946Z,22.88
2018-09-02T09:29:46.661Z,22.96
2018-09-02T09:32:14.415Z,22.94
2018-09-02T09:34:42.131Z,22.95
2018-09-02T09:37:10.220Z,22.94
2018-09-02T09:39:37.907Z,22.94
2018-09-02T09:42:06.016Z,22.96
2018-09-02T09:44:34.026Z,22.97
2018-09-02T09:47:02.045Z,22.98
2018-09-02T09:49:30.552Z,22.99
2018-09-02T09:51:58.266Z,23.01
2018-09-02T09:54:26.475Z,23.03
2018-09-02T09:56:55.936Z,23.04
2018-09-02T09:59:23.593Z,23.03
2018-09-02T10:01:51.928Z,23.01
2018-09-02T10:04:19.601Z,22.99
2018-09-02T10:06:47.352Z,23.00
2018-09-02T10:09:15.704Z,23.05
2018-09-02T10:11:44.082Z,23.10
2018-09-02T10:14:12.143Z,23.12
2018-09-02T10:16:39.831Z,23.11
2018-09-02T10:19:08.178Z,23.11
2018-09-02T10:21:36.078Z,23.11
2018-09-02T10:24:04.191Z,23.15
2018-09-02T10:26:32.169Z,23.16
2018-09-02T10:28:59.931Z,23.17
2018-09-02T10:31:27.796Z,23.14
2018-09-02T10:33:56.103Z,23.10
2018-09-02T10:36:24.528Z,23.11
2018-09-02T10:38:52.265Z,23.12
2018-09-02T10:41:20.180Z,23.11
2018-09-02T10:43:47.923Z,23.08
2018-09-02T10:46:15.714Z,23.16
2018-09-02T10:48:43.455Z,23.21
2018-09-02T10:51:11.169Z,23.12
2018-09-02T10:53:38.927Z,23.19
2018-09-02T10:56:06.624Z,23.20
2018-09-02T10:58:34.305Z,23.27
2018-09-02T11:01:02.150Z,23.30
2018-09-02T11:03:29.844Z,23.29
2018-09-02T11:05:57.626Z,23.25
2018-09-02T11:08:25.613Z,23.26
2018-09-02T11:10:53.376Z,23.31
2018-09-02T11:13:21.666Z,23.39
2018-09-02T11:15:49.798Z,23.41
2018-09-02T11:18:17.931Z,23.44
2018-09-02T11:20:45.758Z,23.39
2018-09-02T11:23:13.432Z,23.41
2018-09-02T11:25:41.291Z,23.53
2018-09-02T11:28:08.985Z,23.57
2018-09-02T11:30:36.683Z,23.59
2018-09-02T11:33:04.505Z,23.62
2018-09-02T11:35:32.583Z,23.65
2018-09-02T11:38:00.323Z,23.68
2018-09-02T11:40:28.083Z,23.72
2018-09-02T11:42:56.021Z,23.77
2018-09-02T11:45:23.722Z,23.81
2018-09-02T11:47:51.703Z,23.81
2018-09-02T11:50:19.419Z,23.82
2018-09-02T11:52:47.153Z,23.85
2018-09-02T11:55:15.133Z,23.86
2018-09-02T11:57:43.438Z,23.91
2018-09-02T12:00:11.107Z,23.93
2018-09-02T12:02:39.328Z,23.93
2018-09-02T12:05:07.099Z,23.96
2018-09-02T12:07:35.454Z,23.92
2018-09-02T12:10:03.802Z,23.93
2018-09-02T12:12:31.550Z,23.98
2018-09-02T12:14:59.295Z,24.02
2018-09-02T12:17:27.412Z,24.06
2018-09-02T12:19:55.112Z,24.06
2018-09-02T12:22:22.916Z,24.11
2018-09-02T12:24:50.628Z,24.10
2018-09-02T12:27:18.417Z,24.10
2018-09-02T12:29:46.758Z,24.08
2018-09-02T12:32:21.120Z,24.12
2018-09-02T12:34:48.871Z,24.20
2018-09-02T12:37:16.573Z,24.24
2018-09-02T12:39:44.345Z,24.25
2018-09-02T12:42:12.104Z,24.29
2018-09-02T12:44:39.865Z,24.31
2018-09-02T12:47:07.980Z,24.33
2018-09-02T12:49:35.733Z,24.35
2018-09-02T12:52:03.537Z,24.39
2018-09-02T12:54:31.263Z,24.42
2018-09-02T12:56:59.179Z,24.46
2018-09-02T13:02:21.633Z,24.49
2018-09-02T13:04:49.328Z,24.54
2018-09-02T13:08:27.186Z,24.57
2018-09-02T13:10:54.848Z,24.60
2018-09-02T13:13:22.769Z,24.60
2018-09-02T13:15:50.409Z,24.64
2018-09-02T13:18:18.085Z,24.66
2018-09-02T13:20:45.803Z,24.70
2018-09-02T13:23:14.311Z,24.74
2018-09-02T13:25:44.079Z,24.78
2018-09-02T13:28:12.491Z,24.80
2018-09-02T13:30:40.176Z,24.84
2018-09-02T13:33:07.868Z,24.87
2018-09-02T13:35:35.513Z,24.87
2018-09-02T13:38:03.612Z,24.93
2018-09-02T13:40:31.584Z,24.96
2018-09-02T13:42:59.544Z,25.00
2018-09-02T13:45:27.577Z,25.02
2018-09-02T13:47:55.334Z,25.05
2018-09-02T13:50:23.197Z,25.02
2018-09-02T13:52:50.923Z,24.99
2018-09-02T13:55:18.589Z,24.99
2018-09-02T13:57:46.657Z,25.04
2018-09-02T14:00:14.391Z,25.09
2018-09-02T14:02:42.598Z,25.14
2018-09-02T14:05:10.818Z,25.21
2018-09-02T14:07:39.055Z,25.26
2018-09-02T14:10:07.413Z,25.35
2018-09-02T14:12:35.173Z,25.46
2018-09-02T14:17:53.667Z,25.85
2018-09-02T14:20:21.974Z,26.65
2018-09-02T14:22:50.093Z,27.79
2018-09-02T14:25:18.582Z,28.18
2018-09-02T14:27:46.255Z,28.74
2018-09-02T14:30:13.933Z,29.07
2018-09-02T14:32:42.278Z,29.32
2018-09-02T14:35:10.295Z,28.14
2018-09-02T14:37:38.359Z,27.06
2018-09-02T14:40:06.447Z,27.57
2018-09-02T14:42:34.122Z,28.49
2018-09-02T14:45:02.154Z,29.24
2018-09-02T14:47:29.846Z,29.64
2018-09-02T14:49:57.698Z,29.88
2018-09-02T14:52:25.550Z,30.04
2018-09-02T14:54:53.656Z,30.17
2018-09-02T14:57:21.689Z,30.30
2018-09-02T14:59:49.418Z,30.41
2018-09-02T15:02:17.204Z,30.54
2018-09-02T15:04:45.507Z,30.66
2018-09-02T15:07:13.936Z,30.77
2018-09-02T15:09:41.959Z,30.42
2018-09-02T15:12:09.927Z,30.42
2018-09-02T15:14:37.615Z,28.81
2018-09-02T15:17:05.306Z,27.82
2018-09-02T15:19:33.543Z,28.91
2018-09-02T15:22:01.825Z,28.64
2018-09-02T15:24:30.171Z,29.34
2018-09-02T15:26:58.504Z,29.83
2018-09-02T15:29:26.249Z,30.33
2018-09-02T15:31:53.971Z,30.51
2018-09-02T15:34:22.349Z,30.49
2018-09-02T15:36:50.877Z,30.36
2018-09-02T15:39:18.577Z,30.09
2018-09-02T15:41:46.619Z,29.72
2018-09-02T15:44:14.772Z,29.33
2018-09-02T15:46:43.020Z,29.01
2018-09-02T15:49:10.760Z,28.67
2018-09-02T15:51:38.426Z,28.26
2018-09-02T15:54:06.409Z,27.89
2018-09-02T15:56:34.533Z,27.54
2018-09-02T15:59:02.652Z,27.25
2018-09-02T16:01:31.254Z,27.05
2018-09-02T16:03:59.184Z,26.90
2018-09-02T16:06:26.858Z,26.80
2018-09-02T16:08:54.529Z,26.73
2018-09-02T16:11:22.223Z,26.65
2018-09-02T16:13:50.571Z,26.59
2018-09-02T16:16:25.846Z,26.56
2018-09-02T16:18:53.578Z,26.51
2018-09-02T16:21:21.581Z,26.47
2018-09-02T16:23:49.282Z,26.42
2018-09-02T16:26:17.047Z,26.37
2018-09-02T16:28:46.491Z,26.33
2018-09-02T16:31:14.749Z,26.30
2018-09-02T16:33:42.676Z,26.25
2018-09-02T16:36:10.805Z,26.22
2018-09-02T16:38:38.711Z,26.18
2018-09-02T16:41:06.590Z,26.14
2018-09-02T16:43:34.529Z,26.10
2018-09-02T16:46:02.297Z,26.06
2018-09-02T16:48:30.041Z,26.04
2018-09-02T16:50:57.847Z,25.99
2018-09-02T16:53:25.617Z,25.97
2018-09-02T16:55:53.431Z,25.95
2018-09-02T16:58:21.358Z,25.91
2018-09-02T17:03:55.414Z,25.88
2018-09-02T17:09:13.122Z,26.01
2018-09-02T17:11:41.078Z,26.08
2018-09-02T17:14:09.409Z,26.14
2018-09-02T17:16:37.388Z,26.19
2018-09-02T17:19:13.319Z,26.24
2018-09-02T17:21:41.084Z,26.31
2018-09-02T17:24:08.717Z,26.32
2018-09-02T17:26:36.446Z,26.30
2018-09-02T17:29:04.090Z,26.26
2018-09-02T17:31:32.011Z,26.21
2018-09-02T17:33:59.713Z,26.15
2018-09-02T17:36:27.378Z,26.12
2018-09-02T17:38:55.080Z,26.08
2018-09-02T17:41:22.774Z,26.07
2018-09-02T17:43:50.784Z,26.05
2018-09-02T17:46:18.475Z,26.02
2018-09-02T17:48:46.160Z,25.97
2018-09-02T17:51:14.145Z,25.93
2018-09-02T17:53:42.395Z,25.85
2018-09-02T17:56:10.090Z,25.73
2018-09-02T17:58:37.797Z,25.62
2018-09-02T18:01:06.187Z,25.55
2018-09-02T18:03:33.863Z,25.48
2018-09-02T18:06:01.486Z,25.44
2018-09-02T18:08:29.398Z,25.38
2018-09-02T18:10:57.080Z,25.32
2018-09-02T18:13:24.762Z,25.27
2018-09-02T18:15:52.539Z,25.24
2018-09-02T18:18:20.164Z,25.18
2018-09-02T18:20:47.895Z,25.14
2018-09-02T18:23:15.845Z,25.10
2018-09-02T18:25:43.538Z,25.06
2018-09-02T18:28:14.299Z,25.02
2018-09-02T18:30:42.235Z,24.96
2018-09-02T18:33:10.214Z,24.93
2018-09-02T18:35:38.209Z,24.90
2018-09-02T18:38:05.887Z,24.87
2018-09-02T18:40:33.919Z,24.85
2018-09-02T18:43:01.629Z,24.81
2018-09-02T18:45:29.649Z,24.78
2018-09-02T18:47:57.312Z,24.75
2018-09-02T18:50:25.360Z,24.72
2018-09-02T18:52:53.337Z,24.71
2018-09-02T18:55:21.485Z,24.68
2018-09-02T18:57:49.172Z,24.65
2018-09-02T19:00:17.169Z,24.63
2018-09-02T19:02:46.009Z,24.60
2018-09-02T19:05:14.036Z,24.54
2018-09-02T19:07:41.662Z,24.49
2018-09-02T19:10:09.342Z,24.45
2018-09-02T19:12:37.246Z,24.40
2018-09-02T19:15:05.781Z,24.39
2018-09-02T19:17:33.435Z,24.35
2018-09-02T19:20:01.395Z,24.34
2018-09-02T19:22:29.473Z,24.36
2018-09-02T19:24:57.248Z,24.35
2018-09-02T19:27:25.492Z,24.33
2018-09-02T19:29:53.699Z,24.32
2018-09-02T19:32:21.607Z,24.33
2018-09-02T19:34:49.579Z,24.32
2018-09-02T19:37:17.583Z,24.33
2018-09-02T19:39:47.068Z,24.31
2018-09-02T19:42:15.582Z,24.30
2018-09-02T19:44:43.293Z,24.29
2018-09-02T19:47:11.486Z,24.27
2018-09-02T19:49:39.261Z,24.27
2018-09-02T19:52:07.173Z,24.27
2018-09-02T19:54:35.734Z,24.28
2018-09-02T19:57:03.434Z,24.27
2018-09-02T19:59:31.396Z,24.27
2018-09-02T20:01:59.218Z,24.27
2018-09-02T20:04:27.160Z,24.13
2018-09-02T20:06:54.831Z,24.26
2018-09-02T20:09:22.922Z,24.26
2018-09-02T20:11:51.102Z,24.25
2018-09-02T20:14:19.094Z,24.25
2018-09-02T20:16:46.977Z,24.25
2018-09-02T20:19:15.301Z,24.22
2018-09-02T20:21:43.126Z,24.21
2018-09-02T20:24:28.959Z,24.20
2018-09-02T20:26:58.244Z,24.20
2018-09-02T20:29:27.708Z,24.19
2018-09-02T20:31:55.714Z,24.20
2018-09-02T20:34:23.625Z,24.18
2018-09-02T20:36:52.491Z,24.18
2018-09-02T20:39:20.740Z,24.16
2018-09-02T20:41:48.531Z,24.15
2018-09-02T20:44:17.261Z,24.13
2018-09-02T20:46:45.011Z,24.13
2018-09-02T20:49:12.729Z,24.12
2018-09-02T20:51:40.385Z,24.12
2018-09-02T20:54:08.050Z,24.13
2018-09-02T20:56:35.780Z,24.12
2018-09-02T20:59:03.499Z,24.12
2018-09-02T21:01:31.540Z,24.11
2018-09-02T21:03:59.292Z,24.10
2018-09-02T21:06:27.011Z,24.09
2018-09-02T21:08:54.716Z,24.09
2018-09-02T21:11:22.395Z,24.07
2018-09-02T21:13:50.156Z,24.07
2018-09-02T21:16:18.149Z,24.07
2018-09-02T21:18:45.849Z,24.04
2018-09-02T21:21:13.536Z,24.00
2018-09-02T21:23:41.342Z,23.94
2018-09-02T21:26:10.083Z,23.91
2018-09-02T21:28:38.102Z,23.91
2018-09-02T21:31:05.891Z,23.89
2018-09-02T21:33:33.682Z,23.88
2018-09-02T21:36:01.691Z,23.89
2018-09-02T21:38:29.406Z,23.88
2018-09-02T21:40:57.307Z,23.87
2018-09-02T21:43:25.463Z,23.84
2018-09-02T21:45:53.205Z,23.83
2018-09-02T21:48:20.875Z,23.82
2018-09-02T21:50:48.706Z,23.80
2018-09-02T21:53:16.490Z,23.80
2018-09-02T21:55:44.143Z,23.82
2018-09-02T21:58:12.214Z,23.80
2018-09-02T22:00:41.302Z,23.78
2018-09-02T22:03:09.001Z,23.77
2018-09-02T22:05:36.857Z,23.76
2018-09-02T22:08:05.072Z,23.75
2018-09-02T22:10:32.723Z,23.75
2018-09-02T22:13:00.363Z,23.72
2018-09-02T22:15:28.096Z,23.72
2018-09-02T22:17:55.827Z,23.72
2018-09-02T22:20:23.868Z,23.71
2018-09-02T22:22:51.573Z,23.69
2018-09-02T22:25:19.424Z,23.69
2018-09-02T22:27:47.131Z,23.67
2018-09-02T22:30:15.244Z,23.66
2018-09-02T22:32:42.951Z,23.66
2018-09-02T22:35:10.629Z,23.64
2018-09-02T22:37:38.383Z,23.64
2018-09-02T22:40:06.113Z,23.63
2018-09-02T22:42:34.605Z,23.62
2018-09-02T22:45:02.530Z,23.60
2018-09-02T22:47:30.240Z,23.59
2018-09-02T22:49:57.951Z,23.59
2018-09-02T22:52:25.873Z,23.57
2018-09-02T22:54:53.604Z,23.58
2018-09-02T22:57:21.319Z,23.59
2018-09-02T22:59:49.375Z,23.58
2018-09-02T23:02:17.098Z,23.57
2018-09-02T23:04:45.123Z,23.58
2018-09-02T23:07:12.815Z,23.56
2018-09-02T23:09:40.484Z,23.54
2018-09-02T23:12:08.222Z,23.53
2018-09-02T23:14:36.226Z,23.53
2018-09-02T23:17:04.214Z,23.54
2018-09-02T23:19:32.060Z,23.55
2018-09-02T23:21:59.704Z,23.57
2018-09-02T23:24:27.387Z,23.58
2018-09-02T23:26:55.075Z,23.59
2018-09-02T23:29:22.787Z,23.59
2018-09-02T23:31:50.536Z,23.58
2018-09-02T23:34:18.656Z,23.57
2018-09-02T23:36:46.404Z,23.58
2018-09-02T23:39:14.585Z,23.58
2018-09-02T23:41:42.626Z,23.58
2018-09-02T23:44:10.298Z,23.57
2018-09-02T23:46:37.945Z,23.58
2018-09-02T23:49:05.744Z,23.58
2018-09-02T23:51:33.447Z,23.58
2018-09-02T23:54:01.434Z,23.57
2018-09-02T23:56:29.149Z,23.56
2018-09-02T23:58:57.167Z,23.55
